Time;durP1;ratioP1;P1;durP2;ratioP2;P2;SDS_P1;SDS_P2;PMS_P1;PMS_P2;Temp;Humidity;BMP_temperature;BMP_pressure;BME280_temperature;BME280_humidity;BME280_pressure;Samples;Min_cycle;Max_cycle;Signal;HPM_P1;HPM_P2
2021/05/19 00:02:11;;;;;;;1999.90;999.90;;;9.30;99.90;;;;;;4991680;28;20536;-77
2021/05/19 00:04:37;;;;;;;1999.90;999.90;;;9.30;99.90;;;;;;4991567;28;20250;-77
2021/05/19 00:07:03;;;;;;;1999.90;999.90;;;9.40;99.90;;;;;;4991647;28;20192;-77
2021/05/19 00:09:28;;;;;;;1999.90;999.90;;;9.30;99.90;;;;;;4991707;28;20174;-77
2021/05/19 00:11:54;;;;;;;1999.90;999.90;;;9.30;99.90;;;;;;4992292;28;20196;-76
2021/05/19 00:14:20;;;;;;;1999.90;999.90;;;9.30;99.90;;;;;;4992702;28;20184;-77
2021/05/19 00:16:48;;;;;;;1999.90;999.90;;;9.30;99.90;;;;;;4991990;28;20254;-78
2021/05/19 00:19:14;;;;;;;1999.90;999.90;;;9.30;99.90;;;;;;4995006;28;20175;-77
2021/05/19 00:21:40;;;;;;;1999.90;999.90;;;9.40;99.90;;;;;;4995137;28;20178;-77
2021/05/19 00:24:06;;;;;;;1999.90;999.90;;;9.50;99.90;;;;;;4995090;28;20192;-75
2021/05/19 00:26:32;;;;;;;1999.90;999.90;;;9.30;99.90;;;;;;4977567;28;20168;-77
2021/05/19 00:28:58;;;;;;;1999.90;999.90;;;9.30;99.90;;;;;;4994930;28;20262;-77
2021/05/19 00:31:31;;;;;;;1999.90;999.90;;;9.40;99.90;;;;;;4995042;28;20183;-76
2021/05/19 00:33:58;;;;;;;1999.90;999.90;;;9.40;99.90;;;;;;4996130;28;20203;-76
2021/05/19 00:36:23;;;;;;;1999.90;999.90;;;9.50;99.90;;;;;;4994673;28;20187;-76
2021/05/19 00:38:49;;;;;;;1999.90;999.90;;;9.40;99.90;;;;;;4994711;28;20220;-75
2021/05/19 00:41:15;;;;;;;1999.90;999.90;;;9.40;99.90;;;;;;4977511;28;20709;-75
2021/05/19 00:43:41;;;;;;;1999.90;999.90;;;9.40;99.90;;;;;;4994492;28;20193;-77
2021/05/19 00:46:07;;;;;;;1999.90;999.90;;;9.30;99.90;;;;;;4994582;28;20189;-76
2021/05/19 00:48:34;;;;;;;1999.90;999.90;;;9.30;99.90;;;;;;4994487;28;20305;-77
2021/05/19 00:51:01;;;;;;;1999.90;999.90;;;9.20;99.90;;;;;;4976868;28;20671;-77
2021/05/19 00:53:27;;;;;;;1999.90;999.90;;;9.10;99.90;;;;;;4977388;28;20192;-77
2021/05/19 00:55:52;;;;;;;1999.90;999.90;;;9.20;99.90;;;;;;4994475;28;20228;-76
2021/05/19 00:58:18;;;;;;;1999.90;999.90;;;9.20;99.90;;;;;;4975405;28;20203;-77
2021/05/19 01:00:44;;;;;;;1999.90;999.90;;;9.30;99.90;;;;;;4994210;28;20176;-76
2021/05/19 01:03:09;;;;;;;1999.90;999.90;;;9.20;99.90;;;;;;4994389;28;20199;-77
2021/05/19 01:10:48;;;;;;;1999.90;999.90;;;9.10;99.90;;;;;;4994450;28;20202;-77
2021/05/19 01:13:16;;;;;;;1999.90;999.90;;;9.20;99.90;;;;;;4994218;28;20183;-77
2021/05/19 01:15:42;;;;;;;1999.90;999.90;;;9.10;99.90;;;;;;4976593;28;20175;-77
2021/05/19 01:18:08;;;;;;;1999.90;999.90;;;9.10;99.90;;;;;;4976305;28;20258;-77
2021/05/19 01:20:35;;;;;;;1999.90;999.90;;;9.00;99.90;;;;;;4993653;28;20180;-78
2021/05/19 01:23:03;;;;;;;1999.90;999.90;;;9.10;99.90;;;;;;4976000;28;20230;-76
2021/05/19 01:25:29;;;;;;;1999.90;999.90;;;9.00;99.90;;;;;;4976235;28;20207;-77
2021/05/19 01:28:00;;;;;;;1999.90;999.90;;;9.00;99.90;;;;;;4991153;28;20200;-79
2021/05/19 01:30:27;;;;;;;1999.90;999.90;;;9.00;99.90;;;;;;4992759;28;20220;-76
2021/05/19 01:32:53;;;;;;;1999.90;999.90;;;8.90;99.90;;;;;;4976507;28;20593;-77
2021/05/19 01:35:19;;;;;;;1999.90;999.90;;;8.90;99.90;;;;;;4976483;28;20168;-78
2021/05/19 01:37:45;;;;;;;1999.90;999.90;;;8.90;99.90;;;;;;4992836;28;20255;-78
2021/05/19 01:40:13;;;;;;;1999.90;999.90;;;8.90;99.90;;;;;;4974983;28;20217;-77
2021/05/19 01:42:40;;;;;;;1999.90;999.90;;;8.90;99.90;;;;;;4992325;28;20190;-78
2021/05/19 01:45:07;;;;;;;1999.90;999.90;;;8.80;99.90;;;;;;4992231;28;20206;-77
2021/05/19 01:47:41;;;;;;;1999.90;999.90;;;8.90;99.90;;;;;;4992186;28;20206;-77
2021/05/19 01:50:11;;;;;;;1999.90;999.90;;;8.80;99.90;;;;;;4992121;28;20170;-79
2021/05/19 01:52:37;;;;;;;1999.90;999.90;;;8.80;99.90;;;;;;4982917;28;20192;-77
2021/05/19 01:55:05;;;;;;;1999.90;999.90;;;8.80;99.90;;;;;;4989981;28;20176;-77
2021/05/19 01:57:33;;;;;;;1999.90;999.90;;;8.80;99.90;;;;;;4990460;28;20658;-77
2021/05/19 01:59:59;;;;;;;1999.90;999.90;;;8.80;99.90;;;;;;4991876;28;20211;-77
2021/05/19 02:02:24;;;;;;;1999.90;999.90;;;8.70;99.90;;;;;;4992259;28;20258;-77
2021/05/19 02:04:52;;;;;;;1999.90;999.90;;;8.80;99.90;;;;;;4992154;28;20279;-76
2021/05/19 02:07:17;;;;;;;1999.90;999.90;;;8.70;99.90;;;;;;4991477;28;20212;-76
2021/05/19 02:09:43;;;;;;;1999.90;999.90;;;8.80;99.90;;;;;;4976329;28;20176;-77
2021/05/19 02:12:09;;;;;;;1999.90;999.90;;;8.80;99.90;;;;;;4975152;28;20179;-77
2021/05/19 02:14:34;;;;;;;1999.90;999.90;;;8.80;99.90;;;;;;4992345;28;20256;-77
2021/05/19 02:17:00;;;;;;;1999.90;999.90;;;8.80;99.90;;;;;;4992372;28;20624;-78
2021/05/19 02:19:26;;;;;;;1999.90;999.90;;;8.80;99.90;;;;;;4993487;28;20687;-77
2021/05/19 02:21:51;;;;;;;1999.90;999.90;;;8.80;99.90;;;;;;4975781;28;20190;-77
2021/05/19 02:24:18;;;;;;;1999.90;999.90;;;8.80;99.90;;;;;;4974450;28;20219;-77
2021/05/19 02:26:45;;;;;;;1999.90;999.90;;;8.70;99.90;;;;;;4991889;28;20198;-77
2021/05/19 02:29:11;;;;;;;1999.90;999.90;;;8.80;99.90;;;;;;4991997;28;20171;-78
2021/05/19 02:31:38;;;;;;;1999.90;999.90;;;8.80;99.90;;;;;;4991841;28;20180;-77
2021/05/19 02:34:04;;;;;;;1999.90;999.90;;;8.80;99.90;;;;;;4991954;28;20227;-77
2021/05/19 02:36:30;;;;;;;1999.90;999.90;;;8.70;99.90;;;;;;4991589;28;20177;-77
2021/05/19 02:38:56;;;;;;;1999.90;999.90;;;8.70;99.90;;;;;;4992519;28;20214;-77
2021/05/19 02:41:22;;;;;;;1999.90;999.90;;;8.60;99.90;;;;;;4991347;28;20184;-78
2021/05/19 02:43:48;;;;;;;1999.90;999.90;;;8.60;99.90;;;;;;4991591;28;20200;-77
2021/05/19 02:46:13;;;;;;;1999.90;999.90;;;8.80;99.90;;;;;;4991668;28;20167;-77
2021/05/19 02:48:40;;;;;;;1999.90;999.90;;;8.60;99.90;;;;;;4974015;28;20565;-76
2021/05/19 02:51:07;;;;;;;1999.90;999.90;;;8.60;99.90;;;;;;4985366;28;20172;-77
2021/05/19 02:53:32;;;;;;;1999.90;999.90;;;8.90;99.90;;;;;;4991608;28;20180;-77
2021/05/19 02:55:58;;;;;;;1999.90;999.90;;;8.60;99.90;;;;;;4991600;28;20234;-77
2021/05/19 02:58:24;;;;;;;1999.90;999.90;;;8.60;99.90;;;;;;4973850;28;20678;-77
2021/05/19 03:00:50;;;;;;;1999.90;999.90;;;8.60;99.90;;;;;;4991438;28;20184;-77
2021/05/19 03:03:15;;;;;;;1999.90;999.90;;;8.80;99.90;;;;;;4991388;28;20244;-78
2021/05/19 03:05:41;;;;;;;1999.90;999.90;;;8.60;99.90;;;;;;4991367;28;20183;-78
2021/05/19 03:08:07;;;;;;;1999.90;999.90;;;8.70;99.90;;;;;;4991407;28;20200;-77
2021/05/19 03:10:36;;;;;;;1999.90;999.90;;;8.50;99.90;;;;;;4991507;28;20553;-77
2021/05/19 03:13:03;;;;;;;1999.90;999.90;;;8.70;99.90;;;;;;4991472;28;20171;-77
2021/05/19 03:15:29;;;;;;;1999.90;999.90;;;8.70;99.90;;;;;;4992145;28;20668;-77
2021/05/19 03:17:55;;;;;;;1999.90;999.90;;;8.50;99.90;;;;;;4975015;28;20282;-78
2021/05/19 03:20:22;;;;;;;1999.90;999.90;;;8.70;99.90;;;;;;4973846;28;20176;-76
2021/05/19 03:22:47;;;;;;;1999.90;999.90;;;8.60;99.90;;;;;;4970769;28;20933;-77
2021/05/19 03:25:13;;;;;;;1999.90;999.90;;;8.60;99.90;;;;;;4991236;28;20197;-77
2021/05/19 03:27:39;;;;;;;1999.90;999.90;;;8.60;99.90;;;;;;4991397;28;20199;-77
2021/05/19 03:30:09;;;;;;;1999.90;999.90;;;8.70;99.90;;;;;;4973613;28;20203;-77
2021/05/19 03:32:35;;;;;;;1999.90;999.90;;;8.80;99.90;;;;;;4991351;28;20723;-77
2021/05/19 03:35:02;;;;;;;1999.90;999.90;;;8.80;99.90;;;;;;4973627;28;20191;-78
2021/05/19 03:37:28;;;;;;;1999.90;999.90;;;8.70;99.90;;;;;;4990963;28;20219;-77
2021/05/19 03:39:53;;;;;;;1999.90;999.90;;;8.70;99.90;;;;;;4992369;28;20190;-76
2021/05/19 03:42:19;;;;;;;1999.90;999.90;;;8.70;99.90;;;;;;4992372;28;20180;-77
2021/05/19 03:44:44;;;;;;;1999.90;999.90;;;8.70;99.90;;;;;;4986043;28;20637;-77
2021/05/19 03:47:10;;;;;;;1999.90;999.90;;;8.60;99.90;;;;;;4971892;28;20192;-77
2021/05/19 03:49:39;;;;;;;1999.90;999.90;;;8.50;99.90;;;;;;4973178;28;20175;-77
2021/05/19 03:52:08;;;;;;;1999.90;999.90;;;8.50;99.90;;;;;;4991962;28;20171;-74
2021/05/19 03:54:34;;;;;;;1999.90;999.90;;;8.40;99.90;;;;;;4996531;28;20199;-77
2021/05/19 03:57:07;;;;;;;1999.90;999.90;;;8.40;99.90;;;;;;4996821;28;20191;-77
2021/05/19 03:59:34;;;;;;;1999.90;999.90;;;8.40;99.90;;;;;;4979412;28;20177;-76
2021/05/19 04:02:00;;;;;;;1999.90;999.90;;;8.30;99.90;;;;;;4994447;28;20270;-76
2021/05/19 04:04:25;;;;;;;1999.90;999.90;;;8.30;99.90;;;;;;4994353;28;20291;-77
2021/05/19 04:06:51;;;;;;;1999.90;999.90;;;8.30;99.90;;;;;;4992634;28;20208;-76
2021/05/19 04:09:17;;;;;;;1999.90;999.90;;;8.30;99.90;;;;;;5012800;28;20172;-77
2021/05/19 04:11:43;;;;;;;1999.90;999.90;;;8.30;99.90;;;;;;5015235;28;20177;-77
2021/05/19 04:14:08;;;;;;;1999.90;999.90;;;8.20;99.90;;;;;;4996172;28;20238;-77
2021/05/19 04:16:34;;;;;;;1999.90;999.90;;;8.20;99.90;;;;;;4989427;28;20196;-76
2021/05/19 04:19:00;;;;;;;1999.90;999.90;;;8.20;99.90;;;;;;4988700;28;20230;-77
2021/05/19 04:21:26;;;;;;;1999.90;999.90;;;8.30;99.90;;;;;;4994639;28;20260;-77
2021/05/19 04:23:52;;;;;;;1999.90;999.90;;;8.30;99.90;;;;;;4996349;28;20326;-76
2021/05/19 04:26:18;;;;;;;1999.90;999.90;;;8.20;99.90;;;;;;4976738;28;20266;-77
2021/05/19 04:28:44;;;;;;;1999.90;999.90;;;8.30;99.90;;;;;;4994448;28;20200;-77
2021/05/19 04:31:10;;;;;;;1999.90;999.90;;;8.30;99.90;;;;;;4995775;28;20199;-77
2021/05/19 04:33:36;;;;;;;1999.90;999.90;;;8.30;99.90;;;;;;4978486;28;20184;-77
2021/05/19 04:36:03;;;;;;;1999.90;999.90;;;8.30;99.90;;;;;;4978798;28;20195;-76
2021/05/19 04:38:28;;;;;;;1999.90;999.90;;;8.30;99.90;;;;;;4995045;28;20211;-77
2021/05/19 04:40:54;;;;;;;1999.90;999.90;;;8.30;99.90;;;;;;4995041;28;20183;-75
2021/05/19 04:43:20;;;;;;;1999.90;999.90;;;8.30;99.90;;;;;;4995510;28;20234;-76
2021/05/19 04:45:46;;;;;;;1999.90;999.90;;;8.40;99.90;;;;;;4996079;28;20249;-76
2021/05/19 04:48:12;;;;;;;1999.90;999.90;;;8.40;99.90;;;;;;4996104;28;20608;-77
2021/05/19 04:50:38;;;;;;;1999.90;999.90;;;8.50;99.90;;;;;;4995478;28;20212;-77
2021/05/19 04:53:04;;;;;;;1999.90;999.90;;;8.50;99.90;;;;;;4996474;28;20196;-82
2021/05/19 04:55:30;;;;;;;1999.90;999.90;;;8.60;99.90;;;;;;4999907;28;20646;-83
2021/05/19 04:57:57;;;;;;;1999.90;999.90;;;8.70;99.90;;;;;;4998704;28;20202;-82
2021/05/19 05:00:23;;;;;;;1999.90;999.90;;;8.80;99.90;;;;;;4999011;28;20164;-83
2021/05/19 05:02:48;;;;;;;1999.90;999.90;;;8.90;99.90;;;;;;4982045;28;20212;-82
2021/05/19 05:05:14;;;;;;;1999.90;999.90;;;9.00;99.90;;;;;;4982797;28;20290;-82
2021/05/19 05:07:40;;;;;;;1999.90;999.90;;;9.10;99.90;;;;;;4999471;28;20200;-82
2021/05/19 05:10:08;;;;;;;1999.90;999.90;;;9.00;99.90;;;;;;4982790;28;20223;-82
2021/05/19 05:12:35;;;;;;;1999.90;999.90;;;9.10;99.90;;;;;;4981729;28;20255;-82
2021/05/19 05:15:00;;;;;;;1999.90;999.90;;;9.10;99.90;;;;;;4999593;28;20590;-82
2021/05/19 05:17:26;;;;;;;1999.90;999.90;;;9.00;99.90;;;;;;4997469;28;20234;-82
2021/05/19 05:19:52;;;;;;;1999.90;999.90;;;9.00;99.90;;;;;;4982622;28;20272;-82
2021/05/19 05:22:18;;;;;;;1999.90;999.90;;;9.10;99.90;;;;;;4998792;28;20534;-82
2021/05/19 05:24:43;;;;;;;1999.90;999.90;;;9.10;99.90;;;;;;4981847;28;20663;-82
2021/05/19 05:27:09;;;;;;;1999.90;999.90;;;9.20;99.90;;;;;;4981886;28;20203;-82
2021/05/19 05:29:35;;;;;;;1999.90;999.90;;;9.20;99.90;;;;;;5000422;28;20192;-82
2021/05/19 05:32:01;;;;;;;1999.90;999.90;;;9.20;99.90;;;;;;5000329;28;20623;-82
2021/05/19 05:34:27;;;;;;;1999.90;999.90;;;9.20;99.90;;;;;;4982395;28;20181;-82
2021/05/19 05:36:53;;;;;;;1999.90;999.90;;;9.30;99.90;;;;;;4999323;28;20195;-82
2021/05/19 05:39:19;;;;;;;1999.90;999.90;;;9.30;99.90;;;;;;5015259;23;20249;-82
2021/05/19 05:41:45;;;;;;;1999.90;999.90;;;9.30;99.90;;;;;;5028089;28;20221;-82
2021/05/19 05:44:11;;;;;;;1999.90;999.90;;;9.40;99.90;;;;;;5019150;28;20269;-82
2021/05/19 05:46:37;;;;;;;1999.90;999.90;;;9.40;99.90;;;;;;5015892;28;20648;-82
2021/05/19 05:49:03;;;;;;;1999.90;999.90;;;9.30;99.90;;;;;;5008220;28;20252;-81
2021/05/19 05:51:29;;;;;;;1999.90;999.90;;;9.20;99.90;;;;;;5014793;28;20171;-82
2021/05/19 05:53:55;;;;;;;1999.90;999.90;;;9.20;99.90;;;;;;5001214;28;20552;-82
2021/05/19 05:56:21;;;;;;;1999.90;999.90;;;9.30;99.90;;;;;;5018519;28;20175;-82
2021/05/19 05:58:46;;;;;;;1999.90;999.90;;;9.40;99.90;;;;;;5018558;28;20204;-81
2021/05/19 06:01:12;;;;;;;1999.90;999.90;;;9.60;99.90;;;;;;5001076;28;20641;-82
2021/05/19 06:03:38;;;;;;;1999.90;999.90;;;9.60;99.90;;;;;;5018274;28;20706;-82
2021/05/19 06:06:04;;;;;;;1999.90;999.90;;;9.70;99.90;;;;;;5018459;28;20168;-82
2021/05/19 06:08:29;;;;;;;1999.90;999.90;;;9.70;99.90;;;;;;5018433;28;20669;-82
2021/05/19 06:10:55;;;;;;;1999.90;999.90;;;9.80;99.90;;;;;;5018278;28;20238;-82
2021/05/19 06:13:22;;;;;;;1999.90;999.90;;;9.80;99.90;;;;;;5018737;28;20207;-81
2021/05/19 06:15:48;;;;;;;1999.90;999.90;;;9.70;99.90;;;;;;4999949;28;20273;-82
2021/05/19 06:18:14;;;;;;;1999.90;999.90;;;9.80;99.90;;;;;;5000201;28;20172;-82
2021/05/19 06:20:39;;;;;;;1999.90;999.90;;;9.90;99.90;;;;;;5018506;28;20206;-82
2021/05/19 06:23:05;;;;;;;1999.90;999.90;;;10.00;99.90;;;;;;5001596;28;20182;-82
2021/05/19 06:25:31;;;;;;;1999.90;999.90;;;10.10;99.90;;;;;;5000947;28;20705;-82
2021/05/19 06:27:56;;;;;;;1999.90;999.90;;;10.10;99.90;;;;;;5000984;28;20187;-83
2021/05/19 06:30:22;;;;;;;1999.90;999.90;;;10.10;99.90;;;;;;5025173;28;20194;-82
2021/05/19 06:32:48;;;;;;;1999.90;999.90;;;10.30;99.90;;;;;;5020539;28;20176;-81
2021/05/19 06:35:14;;;;;;;1999.90;999.90;;;10.30;99.90;;;;;;4991549;28;20184;-81
2021/05/19 06:37:39;;;;;;;1999.90;999.90;;;10.30;99.90;;;;;;5012201;28;20179;-82
2021/05/19 06:40:06;;;;;;;1999.90;999.90;;;10.30;99.90;;;;;;5020420;28;20204;-81
2021/05/19 06:42:31;;;;;;;1999.90;999.90;;;10.20;99.90;;;;;;5016302;28;20201;-82
2021/05/19 06:44:57;;;;;;;1999.90;999.90;;;10.20;99.90;;;;;;5019541;28;20255;-81
2021/05/19 06:47:23;;;;;;;1999.90;999.90;;;10.20;99.90;;;;;;5019713;28;20539;-81
2021/05/19 06:49:51;;;;;;;1999.90;999.90;;;10.30;99.90;;;;;;4997366;28;20287;-82
2021/05/19 06:52:17;;;;;;;1999.90;999.90;;;10.40;99.90;;;;;;5012795;28;20175;-81
2021/05/19 06:54:43;;;;;;;1999.90;999.90;;;10.40;99.90;;;;;;5012993;28;20556;-82
2021/05/19 06:57:08;;;;;;;1999.90;999.90;;;10.50;99.90;;;;;;5020884;28;20232;-82
2021/05/19 06:59:34;;;;;;;1999.90;999.90;;;10.60;99.90;;;;;;5029555;28;20314;-82
2021/05/19 07:02:00;;;;;;;1999.90;999.90;;;10.80;99.90;;;;;;5018244;28;20218;-82
2021/05/19 07:04:25;;;;;;;1999.90;999.90;;;11.00;99.90;;;;;;5008482;28;20201;-80
2021/05/19 07:06:51;;;;;;;1999.90;999.90;;;11.10;99.90;;;;;;5021806;28;20210;-82
2021/05/19 07:09:18;;;;;;;1999.90;999.90;;;11.20;99.90;;;;;;5019051;28;20204;-82
2021/05/19 07:11:44;;;;;;;1999.90;999.90;;;11.40;99.90;;;;;;5001904;28;20185;-81
2021/05/19 07:14:15;;;;;;;1999.90;999.90;;;11.50;99.90;;;;;;5019553;28;21239;-81
2021/05/19 07:16:48;;;;;;;1999.90;999.90;;;11.30;99.90;;;;;;5016648;28;20534;-82
2021/05/19 07:19:14;;;;;;;1999.90;999.90;;;11.20;99.90;;;;;;5019603;28;20235;-81
2021/05/19 07:21:40;;;;;;;1999.90;999.90;;;11.10;99.90;;;;;;5019068;28;20178;-81
2021/05/19 07:24:06;;;;;;;1999.90;999.90;;;11.00;99.90;;;;;;5018356;28;20234;-81
2021/05/19 07:26:32;;;;;;;1999.90;999.90;;;11.00;99.90;;;;;;5013825;28;20191;-83
2021/05/19 07:28:58;;;;;;;1999.90;999.90;;;11.10;99.90;;;;;;5022761;28;20197;-82
2021/05/19 07:31:24;;;;;;;1999.90;999.90;;;11.10;99.90;;;;;;5015298;28;20656;-82
2021/05/19 07:33:50;;;;;;;1999.90;999.90;;;11.20;99.90;;;;;;5023652;28;20204;-82
2021/05/19 07:36:16;;;;;;;1999.90;999.90;;;11.40;99.90;;;;;;5026584;28;20179;-84
2021/05/19 07:38:41;;;;;;;1999.90;999.90;;;11.50;99.90;;;;;;5017522;28;20812;-83
2021/05/19 07:41:07;;;;;;;1999.90;999.90;;;11.60;99.90;;;;;;5018721;28;20211;-82
2021/05/19 07:43:32;;;;;;;1999.90;999.90;;;11.80;99.90;;;;;;5025748;28;20248;-83
2021/05/19 07:45:58;;;;;;;1999.90;999.90;;;11.70;99.90;;;;;;5039962;28;20178;-82
2021/05/19 07:48:24;;;;;;;1999.90;999.90;;;11.60;99.90;;;;;;5016604;28;20172;-83
2021/05/19 07:50:50;;;;;;;1999.90;999.90;;;11.60;99.90;;;;;;5018388;28;20183;-82
2021/05/19 07:53:15;;;;;;;1999.90;999.90;;;11.70;99.90;;;;;;5023640;28;20177;-84
2021/05/19 07:56:03;;;;;;;1999.90;999.90;;;11.80;99.90;;;;;;5021929;28;20176;-83
2021/05/19 07:58:38;;;;;;;1999.90;999.90;;;11.90;99.90;;;;;;5040548;28;20233;-82
2021/05/19 08:03:32;;;;;;;1999.90;999.90;;;11.80;99.90;;;;;;5022540;28;20202;-83
2021/05/19 08:05:58;;;;;;;1999.90;999.90;;;11.90;99.90;;;;;;5021293;28;20173;-83
2021/05/19 08:08:24;;;;;;;1999.90;999.90;;;12.20;99.90;;;;;;5021986;28;20192;-82
2021/05/19 08:10:50;;;;;;;1999.90;999.90;;;12.40;99.90;;;;;;5017459;28;20202;-82
2021/05/19 08:13:16;;;;;;;1999.90;999.90;;;12.20;99.90;;;;;;5023684;28;20176;-82
2021/05/19 08:15:41;;;;;;;1999.90;999.90;;;12.10;99.90;;;;;;5022923;28;20172;-83
2021/05/19 08:18:09;;;;;;;1999.90;999.90;;;12.20;99.90;;;;;;5027135;28;20181;-82
2021/05/19 08:20:35;;;;;;;1999.90;999.90;;;12.20;99.90;;;;;;4994392;28;20201;-82
2021/05/19 08:23:01;;;;;;;1999.90;999.90;;;12.20;99.90;;;;;;5005523;28;20263;-82
2021/05/19 08:25:26;;;;;;;1999.90;999.90;;;12.20;99.90;;;;;;5033607;28;20238;-82
2021/05/19 08:27:52;;;;;;;1999.90;999.90;;;12.10;99.90;;;;;;5036240;28;20230;-82
2021/05/19 08:30:18;;;;;;;1999.90;999.90;;;12.00;99.90;;;;;;5004901;28;20197;-83
2021/05/19 08:32:44;;;;;;;1999.90;999.90;;;12.10;99.90;;;;;;4999108;28;20192;-84
2021/05/19 08:35:10;;;;;;;1999.90;999.90;;;12.20;99.90;;;;;;5041684;28;20585;-82
2021/05/19 08:37:37;;;;;;;1999.90;999.90;;;12.10;99.90;;;;;;5027558;28;20199;-82
2021/05/19 08:40:04;;;;;;;1999.90;999.90;;;12.10;99.90;;;;;;5004721;28;20249;-81
2021/05/19 08:42:32;;;;;;;1999.90;999.90;;;12.20;99.90;;;;;;4999995;28;20182;-82
2021/05/19 08:44:58;;;;;;;1999.90;999.90;;;12.40;99.90;;;;;;5020460;28;20606;-81
2021/05/19 08:47:24;;;;;;;1999.90;999.90;;;12.60;99.90;;;;;;5042349;28;20210;-82
2021/05/19 08:49:50;;;;;;;1999.90;999.90;;;12.80;99.90;;;;;;5040807;28;20634;-83
2021/05/19 08:52:18;;;;;;;1999.90;999.90;;;13.00;99.90;;;;;;5010957;28;20200;-82
2021/05/19 08:54:44;;;;;;;1999.90;999.90;;;13.10;99.90;;;;;;5041548;28;20181;-83
2021/05/19 08:57:11;;;;;;;1999.90;999.90;;;12.90;99.90;;;;;;5023435;28;20237;-82
2021/05/19 08:59:37;;;;;;;1999.90;999.90;;;12.60;99.90;;;;;;5022492;28;20196;-82
2021/05/19 09:02:17;;;;;;;1999.90;999.90;;;11.90;99.90;;;;;;5009788;28;20178;-82
2021/05/19 09:04:43;;;;;;;1999.90;999.90;;;11.10;99.90;;;;;;5041596;28;20195;-83
2021/05/19 09:07:18;;;;;;;1999.90;999.90;;;10.40;99.90;;;;;;5038697;28;20188;-82
2021/05/19 09:09:44;;;;;;;1999.90;999.90;;;10.10;99.90;;;;;;5021660;28;20200;-81
2021/05/19 09:12:15;;;;;;;1999.90;999.90;;;9.90;99.90;;;;;;5018969;28;20258;-83
2021/05/19 09:14:45;;;;;;;1999.90;999.90;;;9.90;99.90;;;;;;5021187;28;20184;-83
2021/05/19 09:17:26;;;;;;;1999.90;999.90;;;10.10;99.90;;;;;;5016355;28;20650;-82
2021/05/19 09:19:57;;;;;;;1999.90;999.90;;;10.20;99.90;;;;;;5018896;28;20278;-81
2021/05/19 09:22:25;;;;;;;1999.90;999.90;;;10.00;99.90;;;;;;4993299;28;20176;-82
2021/05/19 09:24:52;;;;;;;1999.90;999.90;;;10.10;99.90;;;;;;5003517;28;20195;-82
2021/05/19 09:27:19;;;;;;;1999.90;999.90;;;10.00;99.90;;;;;;5021865;28;20256;-84
2021/05/19 09:29:52;;;;;;;1999.90;999.90;;;10.10;99.90;;;;;;5020898;28;20556;-83
2021/05/19 09:32:20;;;;;;;1999.90;999.90;;;10.20;99.90;;;;;;5017998;28;20635;-82
2021/05/19 09:34:52;;;;;;;1999.90;999.90;;;10.20;99.90;;;;;;5007368;28;20259;-82
2021/05/19 09:37:30;;;;;;;1999.90;999.90;;;10.20;99.90;;;;;;4997172;28;20179;-76
2021/05/19 09:40:03;;;;;;;1999.90;999.90;;;10.30;99.90;;;;;;5014775;28;20624;-76
2021/05/19 09:42:35;;;;;;;1999.90;999.90;;;10.30;99.90;;;;;;4997302;28;20701;-75
2021/05/19 09:45:17;;;;;;;1999.90;999.90;;;10.30;99.90;;;;;;5014442;28;20274;-75
2021/05/19 09:47:44;;;;;;;1999.90;999.90;;;10.30;99.90;;;;;;4996888;28;20179;-77
2021/05/19 09:50:14;;;;;;;1999.90;999.90;;;10.40;99.90;;;;;;5014615;28;20636;-76
2021/05/19 09:52:59;;;;;;;1999.90;999.90;;;10.50;99.90;;;;;;5017493;28;20185;-76
2021/05/19 09:55:25;;;;;;;1999.90;999.90;;;10.40;99.90;;;;;;4995052;28;20199;-77
2021/05/19 09:57:51;;;;;;;1999.90;999.90;;;10.40;99.90;;;;;;5012101;28;20180;-77
2021/05/19 10:00:22;;;;;;;1999.90;999.90;;;10.40;99.90;;;;;;5013568;28;20212;-76
2021/05/19 10:02:48;;;;;;;1999.90;999.90;;;10.50;99.90;;;;;;5013994;28;20183;-77
2021/05/19 10:05:27;;;;;;;1999.90;999.90;;;10.40;99.90;;;;;;5013469;28;20261;-76
2021/05/19 10:07:54;;;;;;;1999.90;999.90;;;10.50;99.90;;;;;;5020386;28;20596;-83
2021/05/19 10:10:21;;;;;;;1999.90;999.90;;;10.60;99.90;;;;;;5020874;28;20598;-82
2021/05/19 10:12:47;;;;;;;1999.90;999.90;;;10.80;99.90;;;;;;5021578;28;20183;-82
2021/05/19 10:15:18;;;;;;;1999.90;999.90;;;11.00;99.90;;;;;;5020662;28;20177;-84
2021/05/19 10:17:47;;;;;;;1999.90;999.90;;;11.10;99.90;;;;;;5021535;28;20238;-82
2021/05/19 10:20:19;;;;;;;1999.90;999.90;;;11.20;99.90;;;;;;5002994;28;20209;-84
2021/05/19 10:22:49;;;;;;;1999.90;999.90;;;11.30;99.90;;;;;;5027397;28;20172;-82
2021/05/19 10:25:36;;;;;;;1999.90;999.90;;;11.60;99.90;;;;;;5002686;28;20199;-84
2021/05/19 10:28:08;;;;;;;1999.90;999.90;;;11.80;99.90;;;;;;5018105;28;20180;-83
2021/05/19 10:30:57;;;;;;;1999.90;999.90;;;11.80;99.90;;;;;;5019936;28;20198;-83
2021/05/19 10:33:37;;;;;;;1999.90;999.90;;;12.10;99.90;;;;;;5020111;28;20172;-83
2021/05/19 10:36:42;;;;;;;1999.90;999.90;;;12.20;99.90;;;;;;5020540;28;20209;-83
2021/05/19 10:39:11;;;;;;;1999.90;999.90;;;12.30;99.90;;;;;;4938220;29;20242;-83
2021/05/19 10:41:38;;;;;;;1999.90;999.90;;;12.00;99.90;;;;;;4985388;28;20222;-84
2021/05/19 10:44:14;;;;;;;1999.90;999.90;;;12.10;99.90;;;;;;5000435;28;20200;-84
2021/05/19 10:49:46;;;;;;;1999.90;999.90;;;12.10;99.90;;;;;;5015355;28;20201;-84
2021/05/19 10:52:37;;;;;;;1999.90;999.90;;;12.10;99.90;;;;;;5004786;28;20189;-84
2021/05/19 10:57:59;;;;;;;1999.90;999.90;;;12.10;99.90;;;;;;5016296;28;20180;-83
2021/05/19 11:00:26;;;;;;;1999.90;999.90;;;12.10;99.90;;;;;;5004357;28;20201;-84
2021/05/19 11:02:55;;;;;;;1999.90;999.90;;;12.20;99.90;;;;;;5039239;28;20206;-84
2021/05/19 11:05:21;;;;;;;1999.90;999.90;;;12.30;99.90;;;;;;5040370;28;20195;-79
2021/05/19 11:08:08;;;;;;;1999.90;999.90;;;12.50;99.90;;;;;;5023399;28;20196;-83
2021/05/19 11:10:52;;;;;;;1999.90;999.90;;;12.40;99.90;;;;;;5006344;28;20282;-84
2021/05/19 11:13:19;;;;;;;1999.90;999.90;;;12.40;99.90;;;;;;5022737;28;20193;-84
2021/05/19 11:16:14;;;;;;;1999.90;999.90;;;12.30;99.90;;;;;;5023075;28;20190;-84
2021/05/19 11:21:21;;;;;;;1999.90;999.90;;;12.00;99.90;;;;;;5040409;28;20180;-84
2021/05/19 11:24:12;;;;;;;1999.90;999.90;;;11.90;99.90;;;;;;5037580;28;20195;-84
2021/05/19 11:26:39;;;;;;;1999.90;999.90;;;12.00;99.90;;;;;;5018062;28;20268;-86
2021/05/19 11:29:06;;;;;;;1999.90;999.90;;;12.10;99.90;;;;;;4994894;28;20576;-83
2021/05/19 11:31:36;;;;;;;1999.90;999.90;;;12.30;99.90;;;;;;4996855;28;20176;-84
2021/05/19 11:34:04;;;;;;;1999.90;999.90;;;12.40;99.90;;;;;;5000490;28;20182;-84
2021/05/19 11:36:43;;;;;;;1999.90;999.90;;;12.50;99.90;;;;;;5002111;28;20180;-85
2021/05/19 11:39:37;;;;;;;1999.90;999.90;;;12.60;99.90;;;;;;5016367;23;20303;-82
2021/05/19 11:42:24;;;;;;;1999.90;999.90;;;12.70;99.90;;;;;;5005175;28;20205;-85
2021/05/19 11:45:00;;;;;;;1999.90;999.90;;;12.70;99.90;;;;;;5009663;28;20279;-85
2021/05/19 11:47:32;;;;;;;1999.90;999.90;;;12.70;99.90;;;;;;5008382;28;20199;-84
2021/05/19 11:50:06;;;;;;;1999.90;999.90;;;12.80;99.90;;;;;;5008825;28;20328;-85
2021/05/19 11:52:42;;;;;;;1999.90;999.90;;;13.00;99.90;;;;;;4999389;28;20182;-85
2021/05/19 11:55:22;;;;;;;1999.90;999.90;;;13.10;99.90;;;;;;4998731;28;20183;-84
2021/05/19 11:57:48;;;;;;;1999.90;999.90;;;13.30;99.90;;;;;;5013944;28;20207;-85
2021/05/19 12:00:14;;;;;;;1999.90;999.90;;;13.60;99.90;;;;;;5014831;28;20278;-85
2021/05/19 12:02:54;;;;;;;1999.90;999.90;;;13.80;99.90;;;;;;4986036;28;20659;-84
2021/05/19 12:05:20;;;;;;;1999.90;999.90;;;13.80;99.90;;;;;;5013898;28;20202;-84
2021/05/19 12:07:46;;;;;;;1999.90;999.90;;;14.00;99.90;;;;;;5014361;28;20228;-85
2021/05/19 12:10:12;;;;;;;1999.90;999.90;;;14.10;99.90;;;;;;5012370;28;20330;-86
2021/05/19 12:12:38;;;;;;;1999.90;999.90;;;14.20;99.90;;;;;;4999917;28;20187;-85
2021/05/19 12:15:04;;;;;;;1999.90;999.90;;;14.40;99.90;;;;;;5021210;28;20183;-84
2021/05/19 12:17:31;;;;;;;1999.90;999.90;;;14.40;99.90;;;;;;5003789;28;20553;-84
2021/05/19 12:19:57;;;;;;;1999.90;999.90;;;14.50;99.90;;;;;;5019661;28;20199;-84
2021/05/19 12:22:23;;;;;;;1999.90;999.90;;;14.50;99.90;;;;;;5017795;28;20197;-84
2021/05/19 12:24:51;;;;;;;1999.90;999.90;;;14.50;99.90;;;;;;5016995;28;20202;-83